Time,TemperatureF,DewpointF,PressureIn,WindDirection,WindDirectionDegrees,WindSpeedMPH,WindSpeedGustMPH,Humidity,HourlyPrecipIn,Conditions,Clouds,dailyrainin,SoftwareType,DateUTC
2013-05-22 00:00:00,48.7,48.2,30.15,NNW,335,7.0,7.0,98,0.32,,,0.00,Wunderground v.1.15,2013-05-22 04:00:00,
2013-05-22 00:05:00,48.7,48.2,30.15,North,10,4.0,8.0,98,0.16,,,0.01,Wunderground v.1.15,2013-05-22 04:05:00,
2013-05-22 00:10:00,48.7,48.2,30.14,West,262,2.0,8.0,98,0.19,,,0.03,Wunderground v.1.15,2013-05-22 04:10:00,
2013-05-22 00:15:00,48.9,48.4,30.06,East,91,2.0,8.0,98,0.14,,,0.04,Wunderground v.1.15,2013-05-22 04:15:00,
2013-05-22 00:20:00,48.9,48.4,30.06,East,93,4.0,4.0,98,0.55,,,0.08,Wunderground v.1.15,2013-05-22 04:20:00,
2013-05-22 00:25:00,49.0,48.5,30.07,NE,56,3.0,8.0,98,0.13,,,0.09,Wunderground v.1.15,2013-05-22 04:25:00,
2013-05-22 00:30:00,49.1,48.6,30.06,ENE,66,1.0,8.0,98,0.09,,,0.10,Wunderground v.1.15,2013-05-22 04:30:00,
2013-05-22 00:35:00,49.0,48.5,30.05,ENE,76,2.0,8.0,98,0.15,,,0.11,Wunderground v.1.15,2013-05-22 04:35:00,
2013-05-22 00:40:00,49.1,48.6,30.06,ENE,78,2.0,2.0,98,0.08,,,0.12,Wunderground v.1.15,2013-05-22 04:40:00,
2013-05-22 00:45:00,48.9,48.4,30.05,ESE,108,2.0,8.0,98,0.11,,,0.13,Wunderground v.1.15,2013-05-22 04:45:00,
2013-05-22 00:50:00,48.8,48.3,30.03,East,81,3.0,8.0,98,0.11,,,0.13,Wunderground v.1.15,2013-05-22 04:50:00,
2013-05-22 01:00:00,48.7,48.2,30.01,East,94,4.0,8.0,98,0.12,,,0.16,Wunderground v.1.15,2013-05-22 05:00:00,
2013-05-22 01:05:00,48.6,48.1,30.01,ENE,68,3.0,8.0,98,0.11,,,0.16,Wunderground v.1.15,2013-05-22 05:05:00,
2013-05-22 01:10:00,48.6,48.1,30.02,East,93,3.0,3.0,98,0.06,,,0.16,Wunderground v.1.15,2013-05-22 05:10:00,
2013-05-22 01:15:00,48.6,48.1,30.02,East,92,2.0,8.0,98,0.04,,,0.17,Wunderground v.1.15,2013-05-22 05:15:00,
2013-05-22 01:20:00,48.7,48.2,30.02,ENE,78,2.0,2.0,98,0.04,,,0.17,Wunderground v.1.15,2013-05-22 05:20:00,
2013-05-22 01:30:00,48.6,48.1,30.02,NE,56,3.0,3.0,98,0.00,,,0.17,Wunderground v.1.15,2013-05-22 05:30:00,
2013-05-22 01:35:00,48.7,48.2,30.02,ENE,64,2.0,8.0,98,0.00,,,0.17,Wunderground v.1.15,2013-05-22 05:35:00,
2013-05-22 01:40:00,48.7,48.2,30.00,ESE,112,2.0,8.0,98,0.00,,,0.17,Wunderground v.1.15,2013-05-22 05:40:00,
2013-05-22 01:45:00,48.7,48.2,30.01,ENE,72,3.0,8.0,98,0.00,,,0.17,Wunderground v.1.15,2013-05-22 05:45:00,
2013-05-22 01:50:00,48.6,48.1,30.00,East,93,3.0,3.0,98,0.00,,,0.17,Wunderground v.1.15,2013-05-22 05:50:00,
2013-05-22 01:55:00,48.6,48.1,29.99,ENE,75,2.0,6.0,98,0.00,,,0.17,Wunderground v.1.15,2013-05-22 05:55:00,
2013-05-22 02:05:00,48.4,47.9,30.00,NE,56,3.0,8.0,98,0.00,,,0.17,Wunderground v.1.15,2013-05-22 06:05:00,
2013-05-22 02:10:00,48.4,47.9,30.00,East,96,4.0,4.0,98,0.00,,,0.17,Wunderground v.1.15,2013-05-22 06:10:00,
2013-05-22 02:15:00,48.4,47.9,30.01,NE,46,4.0,8.0,98,0.00,,,0.17,Wunderground v.1.15,2013-05-22 06:15:00,
2013-05-22 02:20:00,48.3,47.8,30.02,ESE,123,2.0,2.0,98,0.00,,,0.17,Wunderground v.1.15,2013-05-22 06:20:00,
2013-05-22 02:25:00,48.4,47.9,30.03,NE,46,1.0,8.0,98,0.00,,,0.17,Wunderground v.1.15,2013-05-22 06:25:00,
2013-05-22 02:35:00,48.5,48.0,30.02,NE,49,0.0,8.0,98,0.00,,,0.17,Wunderground v.1.15,2013-05-22 06:35:00,
2013-05-22 02:40:00,48.5,48.0,30.01,NE,49,0.0,8.0,98,0.00,,,0.17,Wunderground v.1.15,2013-05-22 06:40:00,
2013-05-22 02:45:00,48.5,48.0,30.00,East,92,1.0,8.0,98,0.00,,,0.17,Wunderground v.1.15,2013-05-22 06:45:00,
2013-05-22 02:50:00,48.4,47.9,30.00,SE,127,2.0,8.0,98,0.00,,,0.17,Wunderground v.1.15,2013-05-22 06:50:00,
2013-05-22 02:55:00,48.4,47.9,29.99,ENE,59,3.0,8.0,98,0.00,,,0.17,Wunderground v.1.15,2013-05-22 06:55:00,
2013-05-22 03:00:00,48.4,47.9,30.00,East,84,3.0,3.0,98,0.00,,,0.17,Wunderground v.1.15,2013-05-22 07:00:00,
2013-05-22 03:10:00,48.6,48.3,29.99,ENE,63,3.0,8.0,99,0.00,,,0.17,Wunderground v.1.15,2013-05-22 07:10:00,
2013-05-22 03:15:00,48.7,48.2,29.98,ENE,59,3.0,8.0,98,0.00,,,0.17,Wunderground v.1.15,2013-05-22 07:15:00,
2013-05-22 03:20:00,48.7,48.2,29.98,SE,130,3.0,3.0,98,0.00,,,0.17,Wunderground v.1.15,2013-05-22 07:20:00,
2013-05-22 03:25:00,48.7,48.2,29.98,East,94,2.0,8.0,98,0.00,,,0.17,Wunderground v.1.15,2013-05-22 07:25:00,
2013-05-22 03:30:00,48.6,48.1,29.98,NE,46,2.0,8.0,98,0.00,,,0.17,Wunderground v.1.15,2013-05-22 07:30:00,
2013-05-22 03:40:00,48.8,48.3,29.98,NE,42,2.0,2.0,98,0.00,,,0.17,Wunderground v.1.15,2013-05-22 07:40:00,
2013-05-22 03:45:00,48.7,48.2,29.99,ENE,71,3.0,3.0,98,0.00,,,0.17,Wunderground v.1.15,2013-05-22 07:45:00,
2013-05-22 03:50:00,48.8,48.3,30.01,NNE,17,4.0,4.0,98,0.00,,,0.17,Wunderground v.1.15,2013-05-22 07:50:00,
2013-05-22 03:55:00,48.7,48.2,30.01,NNE,23,3.0,8.0,98,0.00,,,0.17,Wunderground v.1.15,2013-05-22 07:55:00,
2013-05-22 04:00:00,48.6,48.3,30.02,NNW,342,1.0,1.0,99,0.00,,,0.17,Wunderground v.1.15,2013-05-22 08:00:00,
2013-05-22 04:05:00,48.6,48.3,30.03,NW,304,2.0,3.0,99,0.00,,,0.17,Wunderground v.1.15,2013-05-22 08:05:00,
2013-05-22 04:15:00,48.6,48.3,30.02,WNW,300,1.0,8.0,99,0.00,,,0.17,Wunderground v.1.15,2013-05-22 08:15:00,
2013-05-22 04:20:00,48.6,48.3,30.01,NNE,17,1.0,8.0,99,0.00,,,0.17,Wunderground v.1.15,2013-05-22 08:20:00,
2013-05-22 04:25:00,48.8,48.5,30.00,NNE,19,1.0,8.0,99,0.00,,,0.17,Wunderground v.1.15,2013-05-22 08:25:00,
2013-05-22 04:30:00,49.0,48.7,30.00,NNE,33,1.0,8.0,99,0.00,,,0.18,Wunderground v.1.15,2013-05-22 08:30:00,
2013-05-22 04:35:00,49.1,48.8,30.00,ENE,63,1.0,8.0,99,0.00,,,0.18,Wunderground v.1.15,2013-05-22 08:35:00,
2013-05-22 04:45:00,49.2,48.9,29.99,ENE,59,1.0,2.0,99,0.06,,,0.19,Wunderground v.1.15,2013-05-22 08:45:00,
2013-05-22 04:50:00,49.1,48.8,29.99,ESE,120,1.0,1.0,99,0.05,,,0.20,Wunderground v.1.15,2013-05-22 08:50:00,
2013-05-22 04:55:00,49.1,48.8,29.99,ENE,72,1.0,8.0,99,0.05,,,0.20,Wunderground v.1.15,2013-05-22 08:55:00,
2013-05-22 05:00:00,49.1,48.8,29.98,ENE,73,1.0,8.0,99,0.06,,,0.21,Wunderground v.1.15,2013-05-22 09:00:00,
2013-05-22 05:05:00,49.2,48.9,29.98,ENE,72,1.0,8.0,99,0.09,,,0.22,Wunderground v.1.15,2013-05-22 09:05:00,
2013-05-22 05:10:00,49.1,48.8,29.98,East,87,1.0,8.0,99,0.15,,,0.23,Wunderground v.1.15,2013-05-22 09:10:00,
2013-05-22 05:20:00,49.0,48.7,29.97,East,82,1.0,1.0,99,0.11,,,0.25,Wunderground v.1.15,2013-05-22 09:20:00,
2013-05-22 05:25:00,49.0,48.7,29.98,East,84,1.0,8.0,99,0.07,,,0.25,Wunderground v.1.15,2013-05-22 09:25:00,
2013-05-22 05:30:00,49.0,48.7,29.98,East,96,0.0,8.0,99,0.05,,,0.26,Wunderground v.1.15,2013-05-22 09:30:00,
2013-05-22 05:35:00,49.0,48.7,29.98,ENE,74,1.0,8.0,99,0.11,,,0.27,Wunderground v.1.15,2013-05-22 09:35:00,
2013-05-22 05:40:00,48.9,48.6,29.98,ESE,111,1.0,1.0,99,0.09,,,0.27,Wunderground v.1.15,2013-05-22 09:40:00,
2013-05-22 05:50:00,49.0,48.7,29.96,SSE,158,1.0,8.0,99,0.13,,,0.29,Wunderground v.1.15,2013-05-22 09:50:00,
2013-05-22 05:55:00,49.0,48.7,29.96,ENE,69,2.0,8.0,99,0.08,,,0.29,Wunderground v.1.15,2013-05-22 09:55:00,
2013-05-22 06:00:00,48.9,48.6,29.95,East,84,3.0,3.0,99,0.06,,,0.30,Wunderground v.1.15,2013-05-22 10:00:00,
2013-05-22 06:05:00,48.9,48.6,29.95,SE,139,3.0,8.0,99,0.06,,,0.30,Wunderground v.1.15,2013-05-22 10:05:00,
2013-05-22 06:10:00,48.7,48.4,29.96,East,87,4.0,8.0,99,0.04,,,0.30,Wunderground v.1.15,2013-05-22 10:10:00,
2013-05-22 06:15:00,48.7,48.4,29.95,East,88,4.0,8.0,99,0.04,,,0.31,Wunderground v.1.15,2013-05-22 10:15:00,
2013-05-22 06:25:00,48.6,48.3,29.95,South,188,4.0,8.0,99,0.04,,,0.31,Wunderground v.1.15,2013-05-22 10:25:00,
2013-05-22 06:30:00,48.6,48.3,29.95,East,83,4.0,4.0,99,0.00,,,0.31,Wunderground v.1.15,2013-05-22 10:30:00,
2013-05-22 06:35:00,48.6,48.3,29.96,East,88,3.0,8.0,99,0.00,,,0.31,Wunderground v.1.15,2013-05-22 10:35:00,
2013-05-22 06:40:00,48.7,48.4,29.96,East,80,2.0,2.0,99,0.00,,,0.31,Wunderground v.1.15,2013-05-22 10:40:00,
2013-05-22 06:45:00,48.8,48.5,29.97,ENE,71,2.0,8.0,99,0.00,,,0.31,Wunderground v.1.15,2013-05-22 10:45:00,
2013-05-22 06:55:00,48.7,48.4,29.97,ESE,123,2.0,8.0,99,0.00,,,0.31,Wunderground v.1.15,2013-05-22 10:55:00,
2013-05-22 07:00:00,48.8,48.5,29.97,East,101,1.0,8.0,99,0.00,,,0.31,Wunderground v.1.15,2013-05-22 11:00:00,
2013-05-22 07:05:00,48.8,48.5,29.97,SSE,159,1.0,8.0,99,0.00,,,0.31,Wunderground v.1.15,2013-05-22 11:05:00,
2013-05-22 07:10:00,48.8,48.5,29.98,SSE,159,0.0,8.0,99,0.00,,,0.31,Wunderground v.1.15,2013-05-22 11:10:00,
2013-05-22 07:15:00,48.8,48.5,29.98,East,92,1.0,8.0,99,0.00,,,0.31,Wunderground v.1.15,2013-05-22 11:15:00,
2013-05-22 07:20:00,48.9,48.6,29.98,East,92,1.0,8.0,99,0.00,,,0.31,Wunderground v.1.15,2013-05-22 11:20:00,
2013-05-22 07:30:00,48.9,48.6,29.98,East,95,1.0,8.0,99,0.00,,,0.31,Wunderground v.1.15,2013-05-22 11:30:00,
2013-05-22 07:35:00,48.8,48.5,29.98,East,92,1.0,8.0,99,0.00,,,0.31,Wunderground v.1.15,2013-05-22 11:35:00,
2013-05-22 07:40:00,48.8,48.5,29.99,ENE,59,2.0,2.0,99,0.00,,,0.31,Wunderground v.1.15,2013-05-22 11:40:00,
2013-05-22 07:45:00,48.8,48.5,29.99,NE,55,2.0,8.0,99,0.00,,,0.31,Wunderground v.1.15,2013-05-22 11:45:00,
2013-05-22 07:50:00,48.8,48.5,29.99,SE,126,1.0,1.0,99,0.00,,,0.31,Wunderground v.1.15,2013-05-22 11:50:00,
2013-05-22 08:00:00,48.9,48.6,30.00,SE,146,0.0,8.0,99,0.00,,,0.31,Wunderground v.1.15,2013-05-22 12:00:00,
2013-05-22 08:16:00,49.0,48.7,30.00,East,84,0.0,0.0,99,0.00,,,0.31,Wunderground v.1.15,2013-05-22 12:16:00,
2013-05-22 08:25:00,49.1,48.8,30.00,East,83,1.0,1.0,99,0.00,,,0.31,Wunderground v.1.15,2013-05-22 12:25:00,
2013-05-22 08:30:00,49.1,48.8,29.99,East,90,1.0,2.0,99,0.00,,,0.31,Wunderground v.1.15,2013-05-22 12:30:00,
2013-05-22 08:35:00,49.2,48.9,29.99,East,90,1.0,2.0,99,0.00,,,0.31,Wunderground v.1.15,2013-05-22 12:35:00,
2013-05-22 08:40:00,49.4,49.1,30.00,East,90,0.0,0.0,99,0.00,,,0.31,Wunderground v.1.15,2013-05-22 12:40:00,
2013-05-22 08:45:00,49.4,49.1,29.99,East,88,1.0,1.0,99,0.00,,,0.31,Wunderground v.1.15,2013-05-22 12:45:00,
2013-05-22 08:55:00,49.6,49.3,29.99,NE,55,1.0,2.0,99,0.00,,,0.31,Wunderground v.1.15,2013-05-22 12:55:00,
2013-05-22 09:00:00,49.4,49.1,30.00,East,90,2.0,2.0,99,0.00,,,0.31,Wunderground v.1.15,2013-05-22 13:00:00,
2013-05-22 09:05:00,49.7,49.4,30.00,ENE,69,2.0,6.0,99,0.00,,,0.31,Wunderground v.1.15,2013-05-22 13:05:00,
2013-05-22 09:10:00,49.7,49.4,30.00,ENE,67,2.0,6.0,99,0.00,,,0.31,Wunderground v.1.15,2013-05-22 13:10:00,
2013-05-22 09:15:00,49.6,49.3,29.99,North,5,3.0,6.0,99,0.00,,,0.31,Wunderground v.1.15,2013-05-22 13:15:00,
2013-05-22 09:20:00,49.8,49.5,29.99,ESE,109,2.0,6.0,99,0.00,,,0.31,Wunderground v.1.15,2013-05-22 13:20:00,
2013-05-22 09:30:00,49.8,49.5,30.00,East,100,1.0,1.0,99,0.00,,,0.31,Wunderground v.1.15,2013-05-22 13:30:00,
2013-05-22 09:35:00,50.0,49.7,30.00,ESE,103,0.0,6.0,99,0.00,,,0.31,Wunderground v.1.15,2013-05-22 13:35:00,
2013-05-22 09:40:00,50.0,49.7,30.00,ESE,102,0.0,6.0,99,0.00,,,0.31,Wunderground v.1.15,2013-05-22 13:40:00,
2013-05-22 09:45:00,50.0,49.7,30.00,NE,55,1.0,6.0,99,0.00,,,0.31,Wunderground v.1.15,2013-05-22 13:45:00,
2013-05-22 09:55:00,50.0,49.7,30.00,ESE,107,2.0,6.0,99,0.00,,,0.31,Wunderground v.1.15,2013-05-22 13:55:00,
2013-05-22 10:00:00,50.1,49.8,30.00,ENE,76,1.0,6.0,99,0.00,,,0.31,Wunderground v.1.15,2013-05-22 14:00:00,
2013-05-22 10:05:00,50.2,49.9,30.00,East,83,2.0,6.0,99,0.00,,,0.31,Wunderground v.1.15,2013-05-22 14:05:00,
2013-05-22 10:15:00,50.4,50.1,30.00,East,98,1.0,2.0,99,0.00,,,0.31,Wunderground v.1.15,2013-05-22 14:15:00,
2013-05-22 10:20:00,50.4,50.1,30.00,NE,47,1.0,1.0,99,0.00,,,0.31,Wunderground v.1.15,2013-05-22 14:20:00,
2013-05-22 10:25:00,50.6,50.3,30.00,SE,132,2.0,2.0,99,0.00,,,0.31,Wunderground v.1.15,2013-05-22 14:25:00,
2013-05-22 10:35:00,50.9,50.6,30.00,NNE,28,1.0,5.0,99,0.00,,,0.31,Wunderground v.1.15,2013-05-22 14:35:00,
2013-05-22 10:40:00,50.8,50.5,30.00,East,85,2.0,2.0,99,0.00,,,0.31,Wunderground v.1.15,2013-05-22 14:40:00,
2013-05-22 10:45:00,50.7,50.4,30.00,ESE,116,3.0,4.0,99,0.00,,,0.31,Wunderground v.1.15,2013-05-22 14:45:00,
2013-05-22 10:50:00,51.0,50.7,30.00,ESE,104,2.0,6.0,99,0.00,,,0.31,Wunderground v.1.15,2013-05-22 14:50:00,
2013-05-22 10:55:00,51.3,51.0,29.99,SE,124,2.0,6.0,99,0.00,,,0.31,Wunderground v.1.15,2013-05-22 14:55:00,
2013-05-22 11:00:00,51.4,51.1,29.99,SE,124,1.0,1.0,99,0.00,,,0.31,Wunderground v.1.15,2013-05-22 15:00:00,
2013-05-22 11:10:00,52.0,51.7,29.99,ENE,59,1.0,6.0,99,0.00,,,0.31,Wunderground v.1.15,2013-05-22 15:10:00,
2013-05-22 11:15:00,51.7,51.4,30.00,ENE,67,2.0,6.0,99,0.00,,,0.31,Wunderground v.1.15,2013-05-22 15:15:00,
2013-05-22 11:20:00,51.5,51.2,29.99,East,101,2.0,6.0,99,0.00,,,0.31,Wunderground v.1.15,2013-05-22 15:20:00,
2013-05-22 11:25:00,51.5,51.2,30.00,ENE,63,2.0,6.0,99,0.00,,,0.31,Wunderground v.1.15,2013-05-22 15:25:00,
2013-05-22 11:30:00,51.2,50.9,30.00,ENE,72,2.0,6.0,99,0.00,,,0.31,Wunderground v.1.15,2013-05-22 15:30:00,
2013-05-22 11:40:00,51.7,51.4,30.01,East,94,2.0,2.0,99,0.00,,,0.31,Wunderground v.1.15,2013-05-22 15:40:00,
2013-05-22 11:45:00,51.7,51.4,30.01,East,91,1.0,6.0,99,0.00,,,0.31,Wunderground v.1.15,2013-05-22 15:45:00,
2013-05-22 11:50:00,51.8,51.5,30.01,East,93,1.0,6.0,99,0.00,,,0.31,Wunderground v.1.15,2013-05-22 15:50:00,
2013-05-22 11:55:00,51.8,51.5,30.01,SE,142,1.0,6.0,99,0.00,,,0.31,Wunderground v.1.15,2013-05-22 15:55:00,
2013-05-22 12:00:00,51.9,51.6,30.01,SE,141,1.0,1.0,99,0.00,,,0.31,Wunderground v.1.15,2013-05-22 16:00:00,
2013-05-22 12:05:00,52.1,51.8,30.01,ENE,65,1.0,6.0,99,0.00,,,0.31,Wunderground v.1.15,2013-05-22 16:05:00,
2013-05-22 12:15:00,52.2,51.7,30.01,East,101,1.0,6.0,98,0.00,,,0.31,Wunderground v.1.15,2013-05-22 16:15:00,
2013-05-22 12:20:00,52.7,52.4,30.01,East,100,1.0,6.0,99,0.00,,,0.31,Wunderground v.1.15,2013-05-22 16:20:00,
2013-05-22 12:25:00,52.8,52.3,30.00,East,82,1.0,6.0,98,0.00,,,0.31,Wunderground v.1.15,2013-05-22 16:25:00,
2013-05-22 12:30:00,52.7,52.2,30.01,East,92,1.0,6.0,98,0.00,,,0.31,Wunderground v.1.15,2013-05-22 16:30:00,
2013-05-22 12:35:00,52.4,51.9,30.01,ENE,65,2.0,6.0,98,0.00,,,0.31,Wunderground v.1.15,2013-05-22 16:35:00,
2013-05-22 12:40:00,52.4,51.9,30.01,ENE,69,1.0,6.0,98,0.00,,,0.31,Wunderground v.1.15,2013-05-22 16:40:00,
2013-05-22 12:50:00,52.6,51.8,30.01,East,94,1.0,6.0,97,0.00,,,0.31,Wunderground v.1.15,2013-05-22 16:50:00,
2013-05-22 12:55:00,52.5,51.7,30.01,ENE,63,2.0,6.0,97,0.00,,,0.31,Wunderground v.1.15,2013-05-22 16:55:00,
2013-05-22 13:00:00,52.6,51.8,30.01,ENE,65,1.0,1.0,97,0.00,,,0.31,Wunderground v.1.15,2013-05-22 17:00:00,
2013-05-22 13:05:00,53.0,52.2,30.01,ENE,65,0.0,6.0,97,0.00,,,0.31,Wunderground v.1.15,2013-05-22 17:05:00,
2013-05-22 13:10:00,53.3,52.5,30.01,SSW,199,0.0,6.0,97,0.00,,,0.31,Wunderground v.1.15,2013-05-22 17:10:00,
2013-05-22 13:15:00,53.2,52.1,30.01,ESE,121,1.0,6.0,96,0.00,,,0.31,Wunderground v.1.15,2013-05-22 17:15:00,
2013-05-22 13:20:00,53.1,52.0,30.01,ESE,116,1.0,1.0,96,0.00,,,0.31,Wunderground v.1.15,2013-05-22 17:20:00,
2013-05-22 13:30:00,53.4,52.3,30.01,ESE,107,0.0,6.0,96,0.00,,,0.31,Wunderground v.1.15,2013-05-22 17:30:00,
2013-05-22 13:35:00,53.5,52.1,30.01,SE,145,0.0,6.0,95,0.00,,,0.31,Wunderground v.1.15,2013-05-22 17:35:00,
2013-05-22 13:40:00,53.7,52.3,30.00,SE,130,0.0,6.0,95,0.00,,,0.31,Wunderground v.1.15,2013-05-22 17:40:00,
2013-05-22 13:45:00,53.9,52.5,30.00,ESE,123,0.0,6.0,95,0.00,,,0.31,Wunderground v.1.15,2013-05-22 17:45:00,
2013-05-22 13:50:00,54.0,52.6,30.00,ESE,115,0.0,6.0,95,0.00,,,0.31,Wunderground v.1.15,2013-05-22 17:50:00,
2013-05-22 13:55:00,53.7,52.0,30.00,ENE,78,1.0,6.0,94,0.00,,,0.31,Wunderground v.1.15,2013-05-22 17:55:00,
2013-05-22 14:00:00,53.8,52.1,30.00,ESE,103,1.0,1.0,94,0.00,,,0.31,Wunderground v.1.15,2013-05-22 18:00:00,
2013-05-22 14:10:00,54.1,52.1,30.00,SE,132,1.0,1.0,93,0.00,,,0.31,Wunderground v.1.15,2013-05-22 18:10:00,
2013-05-22 14:15:00,54.1,52.4,30.00,SE,142,1.0,6.0,94,0.00,,,0.31,Wunderground v.1.15,2013-05-22 18:15:00,
2013-05-22 14:25:00,53.8,51.8,30.00,SSE,148,1.0,6.0,93,0.00,,,0.31,Wunderground v.1.15,2013-05-22 18:25:00,
2013-05-22 14:30:00,53.5,51.5,30.00,SE,142,0.0,6.0,93,0.00,,,0.31,Wunderground v.1.15,2013-05-22 18:30:00,
2013-05-22 14:35:00,53.6,51.9,30.00,SE,141,0.0,6.0,94,0.00,,,0.31,Wunderground v.1.15,2013-05-22 18:35:00,
2013-05-22 14:40:00,53.3,51.3,30.00,ESE,119,1.0,1.0,93,0.00,,,0.31,Wunderground v.1.15,2013-05-22 18:40:00,
2013-05-22 14:45:00,53.3,51.6,29.99,SE,125,1.0,6.0,94,0.00,,,0.31,Wunderground v.1.15,2013-05-22 18:45:00,
2013-05-22 14:50:00,53.4,51.7,29.99,ENE,69,1.0,6.0,94,0.00,,,0.31,Wunderground v.1.15,2013-05-22 18:50:00,
2013-05-22 15:00:00,52.9,51.2,29.99,East,82,2.0,2.0,94,0.00,,,0.31,Wunderground v.1.15,2013-05-22 19:00:00,
2013-05-22 15:05:00,53.0,51.3,30.00,ESE,111,1.0,6.0,94,0.00,,,0.31,Wunderground v.1.15,2013-05-22 19:05:00,
2013-05-22 15:10:00,53.0,51.3,30.00,East,92,1.0,1.0,94,0.00,,,0.31,Wunderground v.1.15,2013-05-22 19:10:00,
2013-05-22 15:15:00,53.0,51.3,30.00,East,92,0.0,6.0,94,0.00,,,0.31,Wunderground v.1.15,2013-05-22 19:15:00,
2013-05-22 15:20:00,53.2,51.5,29.99,South,171,0.0,6.0,94,0.00,,,0.31,Wunderground v.1.15,2013-05-22 19:20:00,
2013-05-22 15:25:00,53.1,51.4,30.00,SE,134,1.0,6.0,94,0.00,,,0.31,Wunderground v.1.15,2013-05-22 19:25:00,
2013-05-22 15:30:00,52.9,51.2,30.00,East,88,1.0,1.0,94,0.00,,,0.31,Wunderground v.1.15,2013-05-22 19:30:00,
2013-05-22 15:40:00,52.8,51.1,30.00,SE,130,0.0,6.0,94,0.00,,,0.31,Wunderground v.1.15,2013-05-22 19:40:00,
2013-05-22 15:45:00,52.7,51.0,30.00,ESE,108,1.0,6.0,94,0.00,,,0.31,Wunderground v.1.15,2013-05-22 19:45:00,
2013-05-22 15:50:00,52.5,50.8,30.00,East,90,1.0,1.0,94,0.00,,,0.31,Wunderground v.1.15,2013-05-22 19:50:00,
2013-05-22 15:55:00,52.7,51.0,30.00,East,90,1.0,6.0,94,0.00,,,0.31,Wunderground v.1.15,2013-05-22 19:55:00,
2013-05-22 16:00:00,52.8,51.1,30.00,East,98,0.0,6.0,94,0.00,,,0.31,Wunderground v.1.15,2013-05-22 20:00:00,
2013-05-22 16:05:00,52.6,50.9,30.00,East,80,1.0,6.0,94,0.00,,,0.31,Wunderground v.1.15,2013-05-22 20:05:00,
2013-05-22 16:10:00,52.4,50.7,30.00,ENE,71,2.0,2.0,94,0.00,,,0.31,Wunderground v.1.15,2013-05-22 20:10:00,
2013-05-22 16:20:00,52.4,50.7,30.00,ESE,109,1.0,6.0,94,0.00,,,0.31,Wunderground v.1.15,2013-05-22 20:20:00,
2013-05-22 16:25:00,52.4,50.7,30.00,East,101,1.0,6.0,94,0.00,,,0.31,Wunderground v.1.15,2013-05-22 20:25:00,
2013-05-22 16:30:00,52.4,50.7,30.00,ESE,106,1.0,6.0,94,0.00,,,0.31,Wunderground v.1.15,2013-05-22 20:30:00,
2013-05-22 16:35:00,52.4,50.7,30.00,ENE,64,1.0,6.0,94,0.00,,,0.31,Wunderground v.1.15,2013-05-22 20:35:00,
2013-05-22 16:40:00,52.3,50.6,30.00,East,98,1.0,6.0,94,0.00,,,0.31,Wunderground v.1.15,2013-05-22 20:40:00,
2013-05-22 16:45:00,52.1,50.4,30.00,ESE,113,2.0,6.0,94,0.00,,,0.31,Wunderground v.1.15,2013-05-22 20:45:00,
2013-05-22 16:50:00,52.1,50.7,30.00,ESE,114,2.0,2.0,95,0.00,,,0.31,Wunderground v.1.15,2013-05-22 20:50:00,
2013-05-22 16:55:00,52.2,50.5,30.00,NE,44,1.0,6.0,94,0.00,,,0.31,Wunderground v.1.15,2013-05-22 20:55:00,
2013-05-22 17:00:00,52.1,50.4,30.00,NE,45,1.0,6.0,94,0.00,,,0.31,Wunderground v.1.15,2013-05-22 21:00:00,
2013-05-22 17:10:00,52.1,50.7,30.00,ENE,71,2.0,6.0,95,0.00,,,0.31,Wunderground v.1.15,2013-05-22 21:10:00,
2013-05-22 17:15:00,52.1,50.7,30.00,ESE,111,2.0,6.0,95,0.00,,,0.31,Wunderground v.1.15,2013-05-22 21:15:00,
2013-05-22 17:20:00,52.2,50.8,30.00,ESE,117,1.0,6.0,95,0.00,,,0.31,Wunderground v.1.15,2013-05-22 21:20:00,
2013-05-22 17:25:00,52.2,50.8,29.99,ENE,63,1.0,6.0,95,0.00,,,0.31,Wunderground v.1.15,2013-05-22 21:25:00,
2013-05-22 17:30:00,52.1,50.4,29.99,ESE,123,1.0,6.0,94,0.00,,,0.31,Wunderground v.1.15,2013-05-22 21:30:00,
2013-05-22 17:40:00,52.2,50.8,30.00,South,179,0.0,6.0,95,0.00,,,0.31,Wunderground v.1.15,2013-05-22 21:40:00,
2013-05-22 17:45:00,52.2,50.8,30.00,SE,133,0.0,6.0,95,0.00,,,0.31,Wunderground v.1.15,2013-05-22 21:45:00,
2013-05-22 17:50:00,52.3,50.9,30.00,SE,133,0.0,6.0,95,0.00,,,0.31,Wunderground v.1.15,2013-05-22 21:50:00,
2013-05-22 17:55:00,52.3,50.9,30.00,SE,133,0.0,6.0,95,0.00,,,0.31,Wunderground v.1.15,2013-05-22 21:55:00,
2013-05-22 18:00:00,52.4,50.7,30.00,SE,132,0.0,6.0,94,0.00,,,0.31,Wunderground v.1.15,2013-05-22 22:00:00,
2013-05-22 18:10:00,52.3,50.6,29.99,ENE,71,1.0,6.0,94,0.00,,,0.31,Wunderground v.1.15,2013-05-22 22:10:00,
2013-05-22 18:15:00,52.2,50.5,30.00,SSE,167,1.0,6.0,94,0.00,,,0.31,Wunderground v.1.15,2013-05-22 22:15:00,
2013-05-22 18:20:00,52.2,50.5,30.00,SSE,167,1.0,1.0,94,0.00,,,0.31,Wunderground v.1.15,2013-05-22 22:20:00,
2013-05-22 18:25:00,52.2,50.8,29.99,SE,142,0.0,6.0,95,0.00,,,0.31,Wunderground v.1.15,2013-05-22 22:25:00,
2013-05-22 18:30:00,52.1,50.7,29.99,SE,140,0.0,6.0,95,0.00,,,0.31,Wunderground v.1.15,2013-05-22 22:30:00,
2013-05-22 18:35:00,52.0,50.6,29.99,South,183,1.0,6.0,95,0.00,,,0.31,Wunderground v.1.15,2013-05-22 22:35:00,
2013-05-22 18:45:00,51.6,50.2,30.00,SSE,166,1.0,6.0,95,0.00,,,0.31,Wunderground v.1.15,2013-05-22 22:45:00,
2013-05-22 18:50:00,51.5,50.1,30.00,SSE,165,1.0,1.0,95,0.00,,,0.31,Wunderground v.1.15,2013-05-22 22:50:00,
2013-05-22 18:55:00,51.5,50.1,30.00,SE,145,0.0,6.0,95,0.00,,,0.31,Wunderground v.1.15,2013-05-22 22:55:00,
2013-05-22 19:00:00,51.4,50.0,29.99,SE,135,0.0,6.0,95,0.00,,,0.31,Wunderground v.1.15,2013-05-22 23:00:00,
2013-05-22 19:05:00,51.4,50.0,30.00,ESE,123,0.0,6.0,95,0.00,,,0.31,Wunderground v.1.15,2013-05-22 23:05:00,
2013-05-22 19:10:00,51.4,50.0,29.99,ESE,123,0.0,6.0,95,0.00,,,0.31,Wunderground v.1.15,2013-05-22 23:10:00,
2013-05-22 19:20:00,51.4,50.3,30.00,ESE,123,0.0,6.0,96,0.00,,,0.31,Wunderground v.1.15,2013-05-22 23:20:00,
2013-05-22 19:25:00,51.4,50.3,30.00,SE,125,0.0,6.0,96,0.00,,,0.31,Wunderground v.1.15,2013-05-22 23:25:00,
2013-05-22 19:30:00,51.4,50.3,30.01,SE,142,0.0,6.0,96,0.00,,,0.31,Wunderground v.1.15,2013-05-22 23:30:00,
2013-05-22 19:35:00,51.2,50.1,30.01,SE,133,0.0,6.0,96,0.00,,,0.31,Wunderground v.1.15,2013-05-22 23:35:00,
2013-05-22 19:40:00,51.2,50.1,30.01,SE,133,0.0,6.0,96,0.00,,,0.31,Wunderground v.1.15,2013-05-22 23:40:00,
2013-05-22 19:50:00,51.0,49.9,30.02,SSE,164,0.0,6.0,96,0.00,,,0.31,Wunderground v.1.15,2013-05-22 23:50:00,
2013-05-22 19:55:00,51.0,49.9,30.02,SSE,164,0.0,6.0,96,0.00,,,0.31,Wunderground v.1.15,2013-05-22 23:55:00,
2013-05-22 20:00:00,51.0,49.9,30.02,SSE,163,0.0,6.0,96,0.00,,,0.31,Wunderground v.1.15,2013-05-23 00:00:00,
2013-05-22 20:05:00,50.9,49.8,30.02,SSE,163,0.0,6.0,96,0.00,,,0.31,Wunderground v.1.15,2013-05-23 00:05:00,
2013-05-22 20:10:00,50.9,49.8,30.02,SSE,163,0.0,6.0,96,0.00,,,0.31,Wunderground v.1.15,2013-05-23 00:10:00,
2013-05-22 20:20:00,50.9,49.8,30.03,SE,144,0.0,6.0,96,0.00,,,0.31,Wunderground v.1.15,2013-05-23 00:20:00,
2013-05-22 20:25:00,50.8,49.7,30.03,SE,144,0.0,6.0,96,0.00,,,0.31,Wunderground v.1.15,2013-05-23 00:25:00,
2013-05-22 20:30:00,50.7,49.6,30.03,SE,144,0.0,6.0,96,0.00,,,0.31,Wunderground v.1.15,2013-05-23 00:30:00,
2013-05-22 20:35:00,50.5,49.4,30.04,South,175,1.0,6.0,96,0.00,,,0.31,Wunderground v.1.15,2013-05-23 00:35:00,
2013-05-22 20:40:00,50.2,49.1,30.04,SSW,200,2.0,6.0,96,0.00,,,0.31,Wunderground v.1.15,2013-05-23 00:40:00,
2013-05-22 20:45:00,50.0,49.2,30.03,South,178,3.0,6.0,97,0.00,,,0.31,Wunderground v.1.15,2013-05-23 00:45:00,
2013-05-22 20:50:00,50.0,49.2,30.03,South,178,1.0,1.0,97,0.00,,,0.32,Wunderground v.1.15,2013-05-23 00:50:00,
2013-05-22 21:00:00,49.9,49.1,30.02,SSE,156,0.0,6.0,97,0.00,,,0.32,Wunderground v.1.15,2013-05-23 01:00:00,
2013-05-22 21:05:00,49.9,49.1,30.02,ESE,120,1.0,6.0,97,0.00,,,0.32,Wunderground v.1.15,2013-05-23 01:05:00,
2013-05-22 21:10:00,49.8,49.0,30.03,SSE,163,1.0,1.0,97,0.00,,,0.33,Wunderground v.1.15,2013-05-23 01:10:00,
2013-05-22 21:15:00,49.7,48.9,30.03,SSE,157,1.0,4.0,97,0.00,,,0.33,Wunderground v.1.15,2013-05-23 01:15:00,
2013-05-22 21:20:00,49.6,48.8,30.01,SE,126,1.0,6.0,97,0.00,,,0.33,Wunderground v.1.15,2013-05-23 01:20:00,
2013-05-22 21:25:00,49.6,48.8,30.02,SE,125,1.0,6.0,97,0.04,,,0.34,Wunderground v.1.15,2013-05-23 01:25:00,
2013-05-22 21:30:00,49.5,48.7,30.01,SE,142,1.0,6.0,97,0.12,,,0.35,Wunderground v.1.15,2013-05-23 01:30:00,
2013-05-22 21:40:00,49.4,48.9,30.01,ESE,106,1.0,1.0,98,0.05,,,0.35,Wunderground v.1.15,2013-05-23 01:40:00,
2013-05-22 21:45:00,49.4,48.9,30.01,SE,126,1.0,6.0,98,0.00,,,0.35,Wunderground v.1.15,2013-05-23 01:45:00,
2013-05-22 21:50:00,49.3,48.8,30.01,SE,124,1.0,1.0,98,0.00,,,0.35,Wunderground v.1.15,2013-05-23 01:50:00,
2013-05-22 21:55:00,49.3,48.8,30.01,SE,124,0.0,6.0,98,0.00,,,0.35,Wunderground v.1.15,2013-05-23 01:55:00,
2013-05-22 22:00:00,49.4,48.9,30.02,SE,125,0.0,6.0,98,0.00,,,0.35,Wunderground v.1.15,2013-05-23 02:00:00,
2013-05-22 22:05:00,49.3,48.8,30.02,SE,125,0.0,6.0,98,0.00,,,0.35,Wunderground v.1.15,2013-05-23 02:05:00,
2013-05-22 22:15:00,49.4,48.9,30.01,ESE,123,0.0,6.0,98,0.00,,,0.35,Wunderground v.1.15,2013-05-23 02:15:00,
2013-05-22 22:20:00,49.4,48.9,29.99,ESE,121,1.0,6.0,98,0.00,,,0.36,Wunderground v.1.15,2013-05-23 02:20:00,
2013-05-22 22:25:00,49.4,48.9,30.00,ENE,61,2.0,6.0,98,0.00,,,0.36,Wunderground v.1.15,2013-05-23 02:25:00,
2013-05-22 22:30:00,49.3,48.8,30.00,SE,136,1.0,1.0,98,0.00,,,0.36,Wunderground v.1.15,2013-05-23 02:30:00,
2013-05-22 22:35:00,49.3,48.8,30.00,SE,135,1.0,6.0,98,0.00,,,0.36,Wunderground v.1.15,2013-05-23 02:35:00,
2013-05-22 22:40:00,49.2,48.7,30.01,SSE,148,1.0,6.0,98,0.00,,,0.36,Wunderground v.1.15,2013-05-23 02:40:00,
2013-05-22 22:45:00,49.2,48.7,30.00,SE,139,1.0,6.0,98,0.00,,,0.36,Wunderground v.1.15,2013-05-23 02:45:00,
2013-05-22 22:55:00,49.1,48.6,30.02,SE,136,0.0,6.0,98,0.00,,,0.37,Wunderground v.1.15,2013-05-23 02:55:00,
2013-05-22 23:00:00,49.1,48.6,30.02,SE,135,1.0,6.0,98,0.00,,,0.37,Wunderground v.1.15,2013-05-23 03:00:00,
2013-05-22 23:05:00,49.2,48.7,30.02,WSW,245,1.0,6.0,98,0.00,,,0.37,Wunderground v.1.15,2013-05-23 03:05:00,
2013-05-22 23:10:00,49.2,48.7,30.02,WSW,245,0.0,6.0,98,0.00,,,0.37,Wunderground v.1.15,2013-05-23 03:10:00,
2013-05-22 23:15:00,49.1,48.6,30.01,WSW,242,0.0,6.0,98,0.00,,,0.37,Wunderground v.1.15,2013-05-23 03:15:00,
2013-05-22 23:20:00,49.1,48.6,30.01,SW,227,0.0,6.0,98,0.00,,,0.37,Wunderground v.1.15,2013-05-23 03:20:00,
2013-05-22 23:25:00,49.2,48.7,30.01,SW,228,0.0,6.0,98,0.00,,,0.37,Wunderground v.1.15,2013-05-23 03:25:00,
2013-05-22 23:35:00,49.0,48.5,30.01,South,173,0.0,6.0,98,0.00,,,0.37,Wunderground v.1.15,2013-05-23 03:35:00,
2013-05-22 23:40:00,48.8,48.3,30.00,ESE,117,1.0,6.0,98,0.00,,,0.37,Wunderground v.1.15,2013-05-23 03:40:00,
2013-05-22 23:45:00,48.7,48.2,30.00,ESE,117,1.0,6.0,98,0.00,,,0.37,Wunderground v.1.15,2013-05-23 03:45:00,
2013-05-22 23:50:00,48.7,48.2,30.00,ESE,117,0.0,6.0,98,0.00,,,0.37,Wunderground v.1.15,2013-05-23 03:50:00,
2013-05-22 23:55:00,48.7,48.2,30.00,ENE,58,1.0,6.0,98,0.00,,,0.37,Wunderground v.1.15,2013-05-23 03:55:00,